Time;durP1;ratioP1;P1;durP2;ratioP2;P2;SDS_P1;SDS_P2;PMS_P1;PMS_P2;Temp;Humidity;BMP_temperature;BMP_pressure;BME280_temperature;BME280_humidity;BME280_pressure;Samples;Min_cycle;Max_cycle;Signal;HPM_P1;HPM_P2
2022/12/28 00:02:19;;;;;;;12.25;5.25;;;;;;;7.06;100.00;101455.66;4969277;28;20169;-73
2022/12/28 00:04:45;;;;;;;8.32;4.05;;;;;;;7.18;100.00;101457.31;4968872;28;20030;-66
2022/12/28 00:07:10;;;;;;;10.15;4.28;;;;;;;7.16;100.00;101464.28;4950950;28;20058;-70
2022/12/28 00:09:36;;;;;;;8.90;4.40;;;;;;;7.19;100.00;101450.28;4968922;28;20023;-71
2022/12/28 00:12:01;;;;;;;13.63;4.85;;;;;;;7.15;100.00;101452.09;4967802;28;20106;-72
2022/12/28 00:14:26;;;;;;;10.40;4.45;;;;;;;7.15;100.00;101430.25;4968780;28;20470;-71
2022/12/28 00:16:52;;;;;;;10.25;4.47;;;;;;;7.28;100.00;101413.50;4962370;28;20465;-68
2022/12/28 00:19:17;;;;;;;16.33;5.05;;;;;;;7.33;100.00;101419.56;4949261;29;20086;-70
2022/12/28 00:21:43;;;;;;;9.57;4.72;;;;;;;7.30;100.00;101409.13;4948376;29;20023;-71
2022/12/28 00:24:18;;;;;;;13.13;4.88;;;;;;;7.37;100.00;101409.91;4931582;29;20019;-71
2022/12/28 00:26:44;;;;;;;10.30;4.78;;;;;;;7.35;100.00;101397.72;4948789;29;20082;-73
2022/12/28 00:29:10;;;;;;;9.02;4.60;;;;;;;7.43;100.00;101395.84;4949265;29;20415;-72
2022/12/28 00:31:36;;;;;;;10.93;4.43;;;;;;;7.49;100.00;101382.66;4932068;29;20471;-70
2022/12/28 00:34:01;;;;;;;14.13;4.78;;;;;;;7.46;100.00;101372.22;4949388;29;20062;-71
2022/12/28 00:36:27;;;;;;;9.57;4.60;;;;;;;7.50;100.00;101375.69;4948716;29;20054;-71
2022/12/28 00:38:52;;;;;;;9.45;4.80;;;;;;;7.47;100.00;101384.47;4931586;29;20038;-69
2022/12/28 00:41:18;;;;;;;10.70;5.05;;;;;;;7.57;100.00;101387.81;4948758;29;20035;-70
2022/12/28 00:43:44;;;;;;;16.17;5.93;;;;;;;7.57;100.00;101375.59;4949450;29;20036;-70
2022/12/28 00:46:10;;;;;;;9.52;4.72;;;;;;;7.65;100.00;101378.09;4962797;28;20587;-71
2022/12/28 00:48:36;;;;;;;8.80;5.35;;;;;;;7.64;100.00;101363.25;4967888;28;20026;-70
2022/12/28 00:51:02;;;;;;;12.57;5.10;;;;;;;7.59;100.00;101346.72;4967172;28;20224;-69
2022/12/28 00:53:27;;;;;;;8.05;4.82;;;;;;;7.61;100.00;101359.81;4968074;28;20505;-71
2022/12/28 00:55:52;;;;;;;10.40;4.72;;;;;;;7.63;100.00;101352.78;4949962;28;20035;-71
2022/12/28 00:58:18;;;;;;;9.43;5.18;;;;;;;7.66;100.00;101347.50;4969102;28;20062;-69
2022/12/28 01:00:43;;;;;;;12.90;5.85;;;;;;;7.64;100.00;101344.00;4968534;28;20023;-70
2022/12/28 01:03:08;;;;;;;12.00;5.22;;;;;;;7.64;100.00;101330.91;4968429;28;20027;-71
2022/12/28 01:05:37;;;;;;;11.77;5.50;;;;;;;7.68;100.00;101324.75;4977434;28;20042;-71
2022/12/28 01:08:02;;;;;;;9.43;5.18;;;;;;;7.73;100.00;101329.94;4988935;28;20426;-69
2022/12/28 01:10:28;;;;;;;14.75;5.78;;;;;;;7.75;100.00;101341.25;4972142;28;20054;-70
2022/12/28 01:12:54;;;;;;;12.00;5.20;;;;;;;7.81;100.00;101300.06;4991074;28;20074;-70
2022/12/28 01:15:19;;;;;;;9.60;5.45;;;;;;;7.84;100.00;101315.78;4991427;28;20393;-68
2022/12/28 01:17:44;;;;;;;13.80;5.43;;;;;;;7.88;100.00;101326.19;4991245;28;20038;-70
2022/12/28 01:20:10;;;;;;;17.27;5.97;;;;;;;7.80;100.00;101321.09;4990471;28;20121;-70
2022/12/28 01:22:35;;;;;;;9.85;5.57;;;;;;;7.81;100.00;101320.19;4990853;28;20105;-70
2022/12/28 01:25:00;;;;;;;16.05;5.43;;;;;;;7.77;100.00;101311.47;4983922;28;20030;-67
2022/12/28 01:27:26;;;;;;;10.48;5.47;;;;;;;7.87;100.00;101311.34;4969996;28;20109;-70
2022/12/28 01:29:51;;;;;;;11.98;5.38;;;;;;;7.84;100.00;101312.28;4970284;28;20071;-70
2022/12/28 01:32:16;;;;;;;11.50;5.80;;;;;;;7.88;100.00;101313.94;4971844;28;20026;-71
2022/12/28 01:34:42;;;;;;;11.55;5.13;;;;;;;8.00;100.00;101312.91;4971683;28;20031;-70
2022/12/28 01:37:07;;;;;;;7.15;5.35;;;;;;;7.98;100.00;101298.94;4971147;28;20062;-70
2022/12/28 01:39:32;;;;;;;10.95;5.40;;;;;;;7.95;100.00;101280.63;4970937;28;20050;-72
2022/12/28 01:41:57;;;;;;;13.02;5.65;;;;;;;8.02;100.00;101299.75;4970377;28;20027;-72
2022/12/28 01:44:23;;;;;;;9.15;5.60;;;;;;;7.96;100.00;101292.84;4971023;28;20081;-70
2022/12/28 01:46:50;;;;;;;8.80;5.50;;;;;;;7.97;100.00;101294.56;4971688;28;20426;-72
2022/12/28 01:49:27;;;;;;;15.18;5.95;;;;;;;7.95;100.00;101278.84;4953630;28;20030;-71
2022/12/28 01:52:20;;;;;;;14.40;5.93;;;;;;;7.99;100.00;101266.56;4949894;28;20399;-70
2022/12/28 01:54:57;;;;;;;10.45;5.60;;;;;;;7.86;100.00;101249.28;4970287;28;20048;-71
2022/12/28 01:57:26;;;;;;;16.60;5.97;;;;;;;7.97;100.00;101263.97;4952369;28;20034;-71
2022/12/28 01:59:56;;;;;;;11.40;5.45;;;;;;;8.05;100.00;101249.84;4953337;28;20042;-70
2022/12/28 02:02:22;;;;;;;12.80;6.72;;;;;;;8.01;100.00;101249.00;4969289;28;20038;-72
2022/12/28 02:04:48;;;;;;;11.40;5.85;;;;;;;8.03;100.00;101268.22;4953043;28;20058;-71
2022/12/28 02:07:18;;;;;;;8.40;5.28;;;;;;;8.08;100.00;101255.91;5068304;23;20061;-63
2022/12/28 02:09:43;;;;;;;11.00;5.35;;;;;;;8.13;100.00;101252.34;4992137;28;20462;-65
2022/12/28 02:12:14;;;;;;;14.02;5.75;;;;;;;8.02;100.00;101235.03;4991952;28;20120;-57
2022/12/28 02:14:39;;;;;;;11.57;5.93;;;;;;;8.19;100.00;101244.38;5009512;28;20037;-63
2022/12/28 02:17:07;;;;;;;18.73;6.72;;;;;;;8.20;100.00;101235.59;5009659;28;20030;-64
2022/12/28 02:19:43;;;;;;;10.82;5.40;;;;;;;8.00;100.00;101252.53;4991865;28;20057;-59
2022/12/28 02:22:14;;;;;;;9.88;5.95;;;;;;;8.13;100.00;101226.09;5009704;28;20029;-66
2022/12/28 02:25:01;;;;;;;10.50;5.50;;;;;;;8.20;100.00;101241.72;4996267;28;20062;-62
2022/12/28 02:27:40;;;;;;;8.40;5.32;;;;;;;8.24;100.00;101218.03;4971032;28;20408;-65
2022/12/28 02:30:07;;;;;;;6.75;4.85;;;;;;;8.26;100.00;101209.22;4971440;28;20026;-65
2022/12/28 02:32:44;;;;;;;8.85;5.03;;;;;;;8.34;100.00;101217.81;4956714;28;20018;-68
2022/12/28 02:35:44;;;;;;;9.85;5.18;;;;;;;8.49;100.00;101212.31;4989356;28;20112;-68
2022/12/28 02:38:10;;;;;;;11.80;5.80;;;;;;;8.45;100.00;101206.25;4957681;28;20046;-63
2022/12/28 02:40:58;;;;;;;9.75;5.95;;;;;;;8.49;100.00;101202.66;4989701;28;20050;-67
2022/12/28 02:43:23;;;;;;;9.55;5.45;;;;;;;8.42;100.00;101185.28;4972688;28;20385;-63
2022/12/28 02:51:31;;;;;;;9.05;5.40;;;;;;;8.40;100.00;101197.59;4999590;28;20100;-67
2022/12/28 02:56:06;;;;;;;13.75;5.10;;;;;;;8.38;100.00;101196.75;5008768;28;20325;-66
2022/12/28 02:57:13;;;;;;;10.48;5.43;;;;;;;8.30;100.00;101181.13;5007646;28;20042;-61
2022/12/28 03:00:09;;;;;;;8.88;5.32;;;;;;;8.44;100.00;101179.13;5009345;28;20030;-66
2022/12/28 03:02:55;;;;;;;10.00;4.50;;;;;;;8.57;100.00;101169.28;4986964;28;20029;-63
2022/12/28 03:08:20;;;;;;;10.80;4.65;;;;;;;8.53;100.00;101183.34;4994766;28;20052;-66
2022/12/28 03:11:03;;;;;;;15.60;5.07;;;;;;;8.62;100.00;101186.69;4994430;28;20030;-63
2022/12/28 03:13:42;;;;;;;8.77;5.47;;;;;;;8.61;100.00;101164.81;5010089;28;20075;-63
2022/12/28 03:16:12;;;;;;;10.73;4.93;;;;;;;8.61;100.00;101183.19;5011454;28;20418;-63
2022/12/28 03:32:28;;;;;;;13.55;4.78;;;;;;;8.68;100.00;101179.56;4976036;28;20109;-67
2022/12/28 03:34:53;;;;;;;10.60;4.80;;;;;;;8.72;100.00;101183.00;4970852;28;20026;-67
2022/12/28 03:37:24;;;;;;;6.18;4.38;;;;;;;8.68;100.00;101186.59;5017545;28;20403;-67
2022/12/28 03:40:11;;;;;;;7.95;4.07;;;;;;;8.70;100.00;101182.19;5010790;28;20060;-66
2022/12/28 03:45:35;;;;;;;5.93;4.32;;;;;;;8.75;100.00;101156.66;5013302;28;20095;-67
2022/12/28 03:48:02;;;;;;;9.52;4.32;;;;;;;8.75;100.00;101185.56;5009885;28;20058;-59
2022/12/28 03:50:28;;;;;;;9.82;4.30;;;;;;;8.76;100.00;101168.03;5007560;28;20025;-65
2022/12/28 03:52:53;;;;;;;7.80;4.00;;;;;;;8.80;100.00;101169.69;4970415;28;20030;-65
2022/12/28 03:55:19;;;;;;;5.03;3.42;;;;;;;8.89;100.00;101168.63;4987407;28;20058;-64
2022/12/28 03:57:44;;;;;;;6.35;4.00;;;;;;;8.89;100.00;101152.88;4969672;28;20523;-64
2022/12/28 04:00:10;;;;;;;7.13;4.13;;;;;;;8.88;100.00;101149.38;4970573;28;20129;-67
2022/12/28 04:02:36;;;;;;;8.35;4.00;;;;;;;8.90;100.00;101151.97;4988595;28;20118;-64
2022/12/28 04:05:02;;;;;;;6.25;4.07;;;;;;;8.84;100.00;101138.06;4988200;28;20465;-65
2022/12/28 04:07:27;;;;;;;7.70;3.60;;;;;;;8.88;100.00;101135.38;4988366;28;20061;-66
2022/12/28 04:09:52;;;;;;;5.72;3.40;;;;;;;8.90;100.00;101144.06;4988115;28;20030;-61
2022/12/28 04:12:18;;;;;;;5.85;3.60;;;;;;;8.95;100.00;101129.97;4989106;28;20023;-65
2022/12/28 04:14:43;;;;;;;7.47;3.17;;;;;;;8.97;100.00;101137.78;4989156;28;20109;-62
2022/12/28 04:17:08;;;;;;;10.75;3.95;;;;;;;8.91;100.00;101136.16;4988379;28;20469;-65
2022/12/28 04:19:34;;;;;;;9.40;3.28;;;;;;;8.91;100.00;101137.94;5019016;28;20388;-65
2022/12/28 04:21:59;;;;;;;7.07;3.50;;;;;;;8.87;100.00;101149.41;5027378;28;20064;-62
2022/12/28 04:24:24;;;;;;;12.70;3.72;;;;;;;8.96;100.00;101134.31;5028107;28;20025;-65
2022/12/28 04:26:50;;;;;;;4.13;3.40;;;;;;;8.85;100.00;101134.53;5027798;28;20037;-65
2022/12/28 04:29:15;;;;;;;10.40;3.88;;;;;;;8.90;100.00;101117.78;5028565;28;20021;-64
2022/12/28 04:31:40;;;;;;;6.57;3.38;;;;;;;8.91;100.00;101124.81;5028157;28;20057;-62
2022/12/28 04:34:06;;;;;;;9.02;3.88;;;;;;;8.93;100.00;101120.34;5027769;28;20025;-65
2022/12/28 04:36:32;;;;;;;7.00;3.35;;;;;;;8.98;100.00;101121.13;5027913;28;20383;-66
2022/12/28 04:38:58;;;;;;;5.03;3.60;;;;;;;8.96;100.00;101118.53;5027485;28;20472;-61
2022/12/28 04:41:24;;;;;;;4.60;3.10;;;;;;;8.89;100.00;101132.72;5008488;28;20053;-65
2022/12/28 04:43:49;;;;;;;8.13;3.50;;;;;;;8.85;100.00;101117.88;5003932;28;20073;-67
2022/12/28 04:46:15;;;;;;;8.15;3.90;;;;;;;8.96;100.00;101102.75;4984242;28;20018;-62
2022/12/28 04:48:41;;;;;;;5.45;3.70;;;;;;;8.85;100.00;101107.38;5010931;28;20038;-66
2022/12/28 04:51:13;;;;;;;7.50;3.30;;;;;;;8.94;100.00;101099.28;5011043;28;20072;-66
2022/12/28 04:53:39;;;;;;;7.68;3.60;;;;;;;8.87;100.00;101108.22;4996740;28;20112;-64
2022/12/28 04:56:06;;;;;;;6.30;3.90;;;;;;;8.99;100.00;101101.81;4997439;28;20034;-65
2022/12/28 04:58:32;;;;;;;6.30;3.05;;;;;;;8.96;100.00;101091.38;5011055;28;20113;-60
2022/12/28 05:01:05;;;;;;;6.10;3.50;;;;;;;9.05;100.00;101100.81;5013108;28;20113;-65
2022/12/28 05:03:31;;;;;;;8.00;3.55;;;;;;;9.01;100.00;101094.78;5016323;28;20092;-64
2022/12/28 05:06:04;;;;;;;9.02;3.35;;;;;;;9.05;100.00;101096.44;5023674;28;20913;-65
2022/12/28 05:08:31;;;;;;;9.93;3.30;;;;;;;9.08;100.00;101106.88;5011821;28;20033;-66
2022/12/28 05:11:00;;;;;;;6.25;2.90;;;;;;;9.03;100.00;101094.75;4992780;28;20036;-63
2022/12/28 05:13:26;;;;;;;7.25;3.28;;;;;;;9.06;100.00;101089.41;5014474;28;20026;-65
2022/12/28 05:15:51;;;;;;;10.15;3.47;;;;;;;9.07;100.00;101099.03;5020090;28;20045;-58
2022/12/28 05:18:16;;;;;;;5.18;3.47;;;;;;;9.11;100.00;101082.28;5011717;28;20030;-64
2022/12/28 05:20:42;;;;;;;5.93;3.40;;;;;;;9.10;100.00;101080.56;5011094;28;20029;-66
2022/12/28 05:23:07;;;;;;;5.22;3.53;;;;;;;9.06;100.00;101077.13;5010855;28;20484;-64
2022/12/28 05:25:32;;;;;;;6.30;3.65;;;;;;;9.01;100.00;101084.25;5010466;28;20627;-61
2022/12/28 05:27:58;;;;;;;7.68;3.83;;;;;;;8.94;100.00;101072.16;4992870;28;20033;-64
2022/12/28 05:30:23;;;;;;;5.88;4.07;;;;;;;9.01;100.00;101079.00;5012147;28;20045;-65
2022/12/28 05:32:49;;;;;;;7.90;4.28;;;;;;;9.02;100.00;101069.34;5018938;28;20021;-62
2022/12/28 05:35:14;;;;;;;8.98;4.30;;;;;;;9.04;100.00;101063.16;5010308;28;20375;-61
2022/12/28 05:37:39;;;;;;;9.23;5.05;;;;;;;9.06;100.00;101071.00;5010698;28;20377;-64
2022/12/28 05:40:05;;;;;;;5.38;4.10;;;;;;;9.08;100.00;101072.69;5010818;28;20030;-63
2022/12/28 05:42:31;;;;;;;7.72;3.80;;;;;;;9.18;100.00;101075.97;5018558;28;20045;-57
2022/12/28 05:44:56;;;;;;;6.53;4.25;;;;;;;9.28;100.00;101087.13;5009852;28;20080;-64
2022/12/28 05:47:21;;;;;;;9.93;4.13;;;;;;;9.25;100.00;101073.19;5010613;28;20105;-63
2022/12/28 05:49:47;;;;;;;8.52;4.03;;;;;;;9.29;100.00;101072.19;5011941;28;20062;-65
2022/12/28 05:52:12;;;;;;;7.70;4.00;;;;;;;9.25;100.00;101074.06;5009442;28;20030;-57
2022/12/28 05:54:37;;;;;;;5.90;3.70;;;;;;;9.36;100.00;101063.25;5007389;28;20022;-64
2022/12/28 05:57:03;;;;;;;7.15;4.05;;;;;;;9.37;100.00;101082.53;5009122;28;20113;-64
2022/12/28 05:59:28;;;;;;;5.63;4.20;;;;;;;9.35;100.00;101075.56;5009247;28;20033;-64
2022/12/28 06:01:53;;;;;;;5.90;3.88;;;;;;;9.46;100.00;101069.16;5007336;28;20530;-59
2022/12/28 06:04:20;;;;;;;6.10;3.83;;;;;;;9.47;100.00;101078.78;5008567;28;20029;-65
2022/12/28 06:06:46;;;;;;;11.15;4.10;;;;;;;9.44;100.00;101081.47;5007507;28;20108;-66
2022/12/28 06:09:12;;;;;;;6.07;3.45;;;;;;;9.45;100.00;101076.19;5008633;28;20053;-65
2022/12/28 06:11:38;;;;;;;6.43;4.18;;;;;;;9.50;100.00;101070.81;5024424;28;20117;-65
2022/12/28 06:14:04;;;;;;;5.22;3.80;;;;;;;9.51;100.00;101067.25;5029620;28;20482;-62
2022/12/28 06:16:32;;;;;;;5.90;3.60;;;;;;;9.50;100.00;101057.66;5028931;28;20026;-65
2022/12/28 06:18:58;;;;;;;4.20;3.80;;;;;;;9.45;100.00;101059.56;5029489;28;20024;-62
2022/12/28 06:21:26;;;;;;;7.10;4.30;;;;;;;9.54;100.00;101067.19;5030020;28;20018;-60
2022/12/28 06:23:53;;;;;;;9.88;4.10;;;;;;;9.46;100.00;101056.00;5029445;28;20111;-65
2022/12/28 06:26:20;;;;;;;7.53;4.40;;;;;;;9.44;100.00;101055.16;5029290;28;20124;-62
2022/12/28 06:28:46;;;;;;;5.55;4.47;;;;;;;9.48;100.00;101054.19;5014825;28;20037;-60
2022/12/28 06:31:15;;;;;;;7.85;4.45;;;;;;;9.48;100.00;101043.66;4990469;28;20026;-64
2022/12/28 06:33:41;;;;;;;6.03;4.50;;;;;;;9.47;100.00;101039.31;4990509;28;20053;-63
2022/12/28 06:36:14;;;;;;;7.05;4.28;;;;;;;9.47;100.00;101055.09;4990510;28;20027;-64
2022/12/28 06:38:40;;;;;;;4.88;3.92;;;;;;;9.44;100.00;101039.41;4990912;28;20097;-63
2022/12/28 06:41:07;;;;;;;8.60;4.30;;;;;;;9.46;100.00;101035.81;4989786;28;20476;-63
2022/12/28 06:43:33;;;;;;;5.25;3.83;;;;;;;9.52;100.00;101040.06;4990568;28;20125;-64
2022/12/28 06:45:59;;;;;;;7.65;4.13;;;;;;;9.50;100.00;101047.13;4989599;28;20109;-64
2022/12/28 06:48:25;;;;;;;5.65;4.45;;;;;;;9.46;100.00;101034.97;4990251;28;20109;-64
2022/12/28 06:51:01;;;;;;;8.68;4.32;;;;;;;9.59;100.00;101032.88;4990489;28;20022;-60
2022/12/28 06:53:29;;;;;;;6.10;4.50;;;;;;;9.63;100.00;101044.19;4989583;28;20026;-64
2022/12/28 06:55:56;;;;;;;6.82;4.50;;;;;;;9.65;100.00;101037.97;5006203;28;20030;-65
2022/12/28 06:58:23;;;;;;;8.00;5.15;;;;;;;9.65;100.00;101039.72;5008629;28;20029;-64
2022/12/28 07:00:49;;;;;;;9.05;4.60;;;;;;;9.61;100.00;101034.53;5009509;28;20125;-65
2022/12/28 07:03:14;;;;;;;6.28;4.72;;;;;;;9.66;100.00;101036.22;5008592;28;20497;-64
2022/12/28 07:05:40;;;;;;;12.05;5.53;;;;;;;9.65;100.00;101029.19;5007856;28;20308;-62
2022/12/28 07:08:05;;;;;;;7.40;4.55;;;;;;;9.58;100.00;101018.00;5008634;28;20034;-62
2022/12/28 07:10:32;;;;;;;6.32;4.72;;;;;;;9.63;100.00;101029.25;5008139;28;20093;-63
2022/12/28 07:12:58;;;;;;;7.03;4.15;;;;;;;9.73;100.00;101014.09;5008991;28;20033;-63
2022/12/28 07:15:23;;;;;;;9.52;4.47;;;;;;;9.69;100.00;101022.97;5007491;28;20054;-65
2022/12/28 07:17:48;;;;;;;5.72;3.90;;;;;;;9.75;100.00;101020.16;5008147;28;20022;-64
2022/12/28 07:20:14;;;;;;;10.45;4.30;;;;;;;9.67;100.00;101027.41;5007981;28;20914;-65
2022/12/28 07:22:39;;;;;;;5.95;3.90;;;;;;;9.69;100.00;101015.94;5008160;28;20037;-66
2022/12/28 07:25:05;;;;;;;6.63;4.28;;;;;;;9.75;100.00;101032.47;5007693;28;20030;-64
2022/12/28 07:27:30;;;;;;;7.53;5.05;;;;;;;9.76;100.00;101011.38;5008080;28;20060;-65
2022/12/28 07:29:56;;;;;;;5.72;4.47;;;;;;;9.76;100.00;101024.53;5007854;28;20026;-67
2022/12/28 07:32:21;;;;;;;6.15;4.72;;;;;;;9.75;100.00;101028.03;4990776;28;20064;-64
2022/12/28 07:34:46;;;;;;;8.13;4.63;;;;;;;9.73;100.00;101027.25;5008001;28;20073;-67
2022/12/28 07:37:12;;;;;;;7.93;5.20;;;;;;;9.70;100.00;101024.69;5007832;28;20026;-60
2022/12/28 07:39:37;;;;;;;4.82;4.35;;;;;;;9.75;100.00;101030.69;5007226;28;20516;-65
2022/12/28 07:42:05;;;;;;;6.63;4.50;;;;;;;9.82;100.00;101040.13;5015950;28;20039;-63
2022/12/28 07:44:31;;;;;;;8.50;4.30;;;;;;;9.86;100.00;101040.91;5026917;28;20110;-66
2022/12/28 07:46:56;;;;;;;6.90;4.57;;;;;;;9.82;100.00;101016.44;5025571;28;20467;-56
2022/12/28 07:49:21;;;;;;;5.35;4.20;;;;;;;9.78;100.00;101037.66;5026389;28;20035;-62
2022/12/28 07:51:48;;;;;;;8.70;4.60;;;;;;;9.78;100.00;101049.00;5027670;28;20029;-63
2022/12/28 07:54:14;;;;;;;8.48;4.55;;;;;;;9.78;100.00;101050.81;5026338;28;20341;-62
2022/12/28 07:56:39;;;;;;;7.38;4.43;;;;;;;9.76;100.00;101044.72;5027047;28;20029;-63
2022/12/28 07:59:05;;;;;;;6.43;4.22;;;;;;;9.84;100.00;101043.59;5011125;28;20036;-64
2022/12/28 08:01:32;;;;;;;7.28;4.38;;;;;;;9.88;100.00;101044.38;5006341;28;20419;-63
2022/12/28 08:04:04;;;;;;;6.18;4.00;;;;;;;9.82;100.00;101050.66;5006212;28;20038;-63
2022/12/28 08:06:32;;;;;;;6.60;4.88;;;;;;;9.86;100.00;101047.06;5004052;28;20042;-61
2022/12/28 08:08:59;;;;;;;7.50;3.80;;;;;;;9.91;100.00;101040.78;5003617;28;20034;-63
2022/12/28 08:11:26;;;;;;;9.57;3.60;;;;;;;9.93;100.00;101042.47;4986402;28;20366;-64
2022/12/28 08:13:53;;;;;;;4.07;3.65;;;;;;;9.95;100.00;101032.78;5003937;28;20112;-63
2022/12/28 08:16:20;;;;;;;5.32;3.67;;;;;;;9.93;100.00;101034.56;5007198;28;20619;-67
2022/12/28 08:18:46;;;;;;;7.20;3.80;;;;;;;9.96;100.00;101041.50;5010651;28;20032;-64
2022/12/28 08:21:17;;;;;;;4.25;3.35;;;;;;;9.98;100.00;101035.31;5010279;28;20028;-62
2022/12/28 08:23:43;;;;;;;7.18;3.53;;;;;;;9.96;100.00;101023.09;5009888;28;20025;-60
2022/12/28 08:26:11;;;;;;;5.75;3.75;;;;;;;10.01;100.00;101023.84;5009212;28;20028;-63
2022/12/28 08:28:38;;;;;;;6.15;3.60;;;;;;;9.91;100.00;101040.78;5014797;28;20022;-66
2022/12/28 08:31:14;;;;;;;9.00;3.72;;;;;;;9.98;100.00;101026.56;5009308;28;20113;-65
2022/12/28 08:33:39;;;;;;;5.68;3.53;;;;;;;9.96;100.00;101036.25;4990215;28;20469;-63
2022/12/28 08:36:06;;;;;;;6.63;3.75;;;;;;;10.00;100.00;101022.13;5010236;28;20065;-65
2022/12/28 08:38:32;;;;;;;6.90;3.80;;;;;;;10.06;100.00;101029.81;5004851;28;20480;-62
2022/12/28 08:40:59;;;;;;;5.70;3.65;;;;;;;9.93;100.00;101031.09;5009162;28;20075;-67
2022/12/28 08:43:26;;;;;;;6.18;3.88;;;;;;;10.04;100.00;101030.78;5010695;28;20021;-66
2022/12/28 08:46:05;;;;;;;5.30;3.63;;;;;;;10.08;100.00;101029.78;5009932;28;20496;-64
2022/12/28 08:48:32;;;;;;;6.10;3.67;;;;;;;10.25;100.00;101034.56;4992065;28;20030;-62
2022/12/28 08:51:09;;;;;;;8.43;3.17;;;;;;;10.11;100.00;101020.03;5009482;28;20032;-64
2022/12/28 08:53:35;;;;;;;6.18;3.45;;;;;;;10.20;100.00;101008.34;4990957;28;20496;-65
2022/12/28 08:56:22;;;;;;;5.72;3.15;;;;;;;10.12;100.00;101026.16;5001040;28;20052;-63
2022/12/28 08:58:48;;;;;;;5.80;3.55;;;;;;;10.10;100.00;101013.03;4989653;28;20077;-61
2022/12/28 09:01:14;;;;;;;5.63;3.50;;;;;;;10.16;100.00;101008.50;5007067;28;20112;-63
2022/12/28 09:03:43;;;;;;;6.03;3.17;;;;;;;10.13;100.00;101005.94;5030616;28;20030;-65
2022/12/28 09:06:11;;;;;;;5.15;2.70;;;;;;;10.17;100.00;101013.72;5030231;28;20033;-65
2022/12/28 09:08:37;;;;;;;6.65;3.15;;;;;;;10.13;100.00;101011.22;5013896;28;20029;-65
2022/12/28 09:11:04;;;;;;;3.22;2.65;;;;;;;10.13;100.00;101004.19;5030889;28;20040;-60
2022/12/28 09:13:31;;;;;;;6.20;2.75;;;;;;;10.01;100.00;101010.66;5031247;28;20029;-63
2022/12/28 09:16:02;;;;;;;10.85;2.80;;;;;;;10.09;100.00;101008.66;5021052;28;20127;-64
2022/12/28 09:18:28;;;;;;;3.67;2.30;;;;;;;10.03;100.00;101003.59;5016698;28;20033;-62
2022/12/28 09:20:54;;;;;;;8.75;2.70;;;;;;;10.09;100.00;100999.94;4997764;28;20053;-65
2022/12/28 09:23:19;;;;;;;5.95;2.80;;;;;;;10.21;100.00;101006.59;4997207;28;20099;-67
2022/12/28 09:25:45;;;;;;;4.13;2.50;;;;;;;10.02;100.00;100993.97;5015195;28;20029;-61
2022/12/28 09:28:10;;;;;;;9.55;3.13;;;;;;;9.97;100.00;101009.03;5011837;28;20034;-67
2022/12/28 09:30:35;;;;;;;10.55;3.38;;;;;;;9.97;100.00;100998.50;5011438;28;20022;-66
2022/12/28 09:35:45;;;;;;;7.35;3.50;;;;;;;10.07;100.00;100993.81;5011330;28;20049;-67
2022/12/28 09:38:10;;;;;;;9.40;3.35;;;;;;;9.91;100.00;101001.31;5002736;28;20018;-63
2022/12/28 09:40:36;;;;;;;6.90;3.15;;;;;;;10.10;100.00;101007.78;5004995;28;20107;-66
2022/12/28 09:43:03;;;;;;;8.82;2.67;;;;;;;10.00;100.00;101011.59;4988045;28;20101;-67
2022/12/28 09:45:28;;;;;;;9.73;2.85;;;;;;;9.98;100.00;101000.22;5010097;28;20014;-60
2022/12/28 09:47:59;;;;;;;8.43;2.40;;;;;;;10.09;100.00;101010.47;5004162;28;20032;-65
2022/12/28 09:50:29;;;;;;;6.70;2.53;;;;;;;10.18;100.00;101009.31;5004582;28;20026;-64
2022/12/28 09:53:05;;;;;;;6.35;2.50;;;;;;;10.25;100.00;101005.59;5004438;28;20013;-66
2022/12/28 09:55:35;;;;;;;6.53;2.50;;;;;;;10.17;100.00;101004.97;5006011;28;20484;-64
2022/12/28 09:58:01;;;;;;;12.88;2.90;;;;;;;10.20;100.00;100994.31;4986805;28;20032;-65
2022/12/28 10:00:37;;;;;;;7.57;2.50;;;;;;;10.20;100.00;101008.34;4970397;28;20072;-66
2022/12/28 10:03:05;;;;;;;5.93;2.22;;;;;;;10.28;100.00;100992.34;5005755;28;20479;-65
2022/12/28 10:05:30;;;;;;;8.00;2.50;;;;;;;10.26;100.00;100993.28;4988803;28;20040;-64
2022/12/28 10:07:57;;;;;;;10.85;2.78;;;;;;;10.31;100.00;101001.91;4985363;28;20122;-65
2022/12/28 10:10:23;;;;;;;8.43;2.45;;;;;;;10.22;100.00;100995.16;4978561;28;20044;-62
2022/12/28 10:12:49;;;;;;;8.38;2.40;;;;;;;10.22;100.00;101003.03;5000015;28;20026;-66
2022/12/28 10:15:15;;;;;;;10.55;2.50;;;;;;;10.27;100.00;100998.53;4988082;28;20036;-62
2022/12/28 10:17:41;;;;;;;6.88;2.40;;;;;;;10.26;100.00;100991.50;4981695;28;20590;-67
2022/12/28 10:20:14;;;;;;;6.40;2.22;;;;;;;10.31;100.00;100986.09;4998595;28;20054;-59
2022/12/28 10:22:41;;;;;;;5.85;2.30;;;;;;;10.26;100.00;100993.28;5005602;28;20109;-66
2022/12/28 10:25:18;;;;;;;9.40;2.83;;;;;;;10.25;100.00;100984.53;4997866;28;20018;-65
2022/12/28 10:27:43;;;;;;;8.45;2.58;;;;;;;10.30;100.00;100989.66;4985608;28;20029;-66
2022/12/28 10:30:25;;;;;;;8.20;2.38;;;;;;;10.19;100.00;100989.97;5001904;28;20725;-63
2022/12/28 10:32:56;;;;;;;4.82;2.40;;;;;;;10.08;100.00;100985.88;5003866;28;20029;-61
2022/12/28 10:35:32;;;;;;;5.82;2.50;;;;;;;10.01;100.00;100989.59;5001704;28;20108;-65
2022/12/28 10:38:32;;;;;;;9.18;2.20;;;;;;;9.97;100.00;100994.09;4981094;28;20117;-64
2022/12/28 10:40:58;;;;;;;9.55;3.20;;;;;;;9.79;100.00;101003.41;4988254;28;20369;-68
2022/12/28 10:43:27;;;;;;;6.20;2.83;;;;;;;9.81;100.00;100990.19;5004519;28;20040;-66
2022/12/28 10:45:53;;;;;;;5.43;2.42;;;;;;;9.95;100.00;100976.63;5006342;28;20054;-65
2022/12/28 10:48:22;;;;;;;8.57;2.80;;;;;;;9.97;100.00;100975.66;5005017;28;20574;-62
2022/12/28 10:50:50;;;;;;;6.88;2.40;;;;;;;9.92;100.00;100960.91;5000610;28;20425;-63
2022/12/28 10:53:38;;;;;;;11.23;2.60;;;;;;;9.94;100.00;100973.13;5028576;28;20036;-59
2022/12/28 10:56:12;;;;;;;9.93;2.30;;;;;;;9.94;100.00;100969.63;5011666;28;20826;-65
2022/12/28 10:58:45;;;;;;;2.45;1.83;;;;;;;10.01;100.00;100957.16;5007723;28;20288;-60
2022/12/28 11:01:10;;;;;;;5.38;2.22;;;;;;;9.97;100.00;100964.28;5006630;28;20040;-63
2022/12/28 11:03:37;;;;;;;4.82;2.22;;;;;;;9.89;100.00;100963.63;5006434;28;20022;-59
2022/12/28 11:06:14;;;;;;;7.22;2.67;;;;;;;9.86;100.00;100957.56;5007517;28;20045;-64
2022/12/28 11:08:41;;;;;;;9.32;2.42;;;;;;;9.69;100.00;100965.09;5007913;28;20041;-62
2022/12/28 11:11:16;;;;;;;7.45;2.55;;;;;;;9.71;100.00;100952.75;5007218;28;20361;-63
2022/12/28 11:13:44;;;;;;;10.27;2.85;;;;;;;9.70;100.00;100945.75;5007640;28;20088;-62
2022/12/28 11:16:12;;;;;;;8.68;2.28;;;;;;;9.75;100.00;100933.31;4985475;28;20112;-64
2022/12/28 11:18:38;;;;;;;2.95;1.80;;;;;;;9.74;100.00;100936.84;5007514;28;20033;-60
2022/12/28 11:21:04;;;;;;;6.80;2.20;;;;;;;9.76;100.00;100940.31;5006230;28;20029;-63
2022/12/28 11:23:31;;;;;;;6.72;2.13;;;;;;;9.84;100.00;100932.19;4988749;28;20072;-68
2022/12/28 11:25:57;;;;;;;7.22;2.40;;;;;;;9.75;100.00;100914.91;5007663;28;20034;-65
2022/12/28 11:28:23;;;;;;;5.85;2.10;;;;;;;9.81;100.00;100927.88;5021538;28;20427;-62
2022/12/28 11:30:49;;;;;;;4.38;2.35;;;;;;;9.83;100.00;100943.63;5021010;28;20030;-65
2022/12/28 11:33:27;;;;;;;6.32;2.30;;;;;;;9.69;100.00;100923.00;5007679;28;20068;-63
2022/12/28 11:35:54;;;;;;;5.90;2.35;;;;;;;9.72;100.00;100925.50;4990773;28;20026;-66
2022/12/28 11:38:42;;;;;;;4.70;2.15;;;;;;;9.64;100.00;100935.41;4990980;28;20033;-63
2022/12/28 11:41:27;;;;;;;8.77;2.47;;;;;;;9.65;100.00;100926.59;5002229;28;20027;-64
2022/12/28 11:43:52;;;;;;;5.07;1.90;;;;;;;9.62;100.00;100909.13;5006185;28;20053;-63
2022/12/28 11:46:20;;;;;;;7.40;2.25;;;;;;;9.69;100.00;100931.72;4999344;28;20026;-66
2022/12/28 11:48:57;;;;;;;5.03;1.92;;;;;;;9.56;100.00;100907.53;5007297;28;20049;-64
2022/12/28 11:51:24;;;;;;;6.78;2.40;;;;;;;9.66;100.00;100929.19;4999342;28;20516;-65
2022/12/28 11:54:00;;;;;;;6.65;1.90;;;;;;;9.59;100.00;100915.34;5002105;28;20042;-64
2022/12/28 11:56:31;;;;;;;7.00;2.17;;;;;;;9.51;100.00;100914.69;4986997;28;20161;-63